Terminal Aerodrome Forecast
Issued by NWS

Home | Current Version | Previous Version | Text Only | Print | Product List | Glossary On
Versions: 1 2 3 4 5 6 7 8 9 10 11 12
000
FTUS44 KLIX 022340
TAFMSY
TAF
KMSY 022340Z 0300/0324 20006KT P6SM FEW050
     FM031300 36005KT P6SM FEW040
     FM032200 19007KT P6SM SCT050=

USA.gov is the U.S. government's official web portal to all federal, state and local government web resources and services.